Time;durP1;ratioP1;P1;durP2;ratioP2;P2;SDS_P1;SDS_P2;PMS_P1;PMS_P2;Temp;Humidity;BMP_temperature;BMP_pressure;BME280_temperature;BME280_humidity;BME280_pressure;Samples;Min_cycle;Max_cycle;Signal;HPM_P1;HPM_P2
2022/05/19 00:00:01;;;;;;;21.60;10.37;;;;;;;9.69;68.50;100952.53;1698641;84;20981;-69
2022/05/19 00:02:27;;;;;;;22.13;10.37;;;;;;;9.69;68.48;100959.70;1677732;83;21017;-68
2022/05/19 00:04:53;;;;;;;15.78;9.83;;;;;;;9.67;68.60;100951.87;1629407;87;21045;-69
2022/05/19 00:07:19;;;;;;;16.97;9.83;;;;;;;9.62;68.78;100953.38;1628571;87;21574;-69
2022/05/19 00:09:45;;;;;;;14.03;9.95;;;;;;;9.58;68.87;100950.20;1629698;87;21635;-68
2022/05/19 00:12:19;;;;;;;12.73;9.20;;;;;;;9.57;68.95;100954.36;1610656;87;21084;-68
2022/05/19 00:14:45;;;;;;;14.13;9.40;;;;;;;9.54;69.03;100959.02;1591512;89;21055;-69
2022/05/19 00:17:11;;;;;;;17.20;9.58;;;;;;;9.51;69.11;100955.86;1591762;88;21235;-69
2022/05/19 00:19:38;;;;;;;13.10;8.35;;;;;;;9.45;69.30;100949.37;1590316;88;21064;-69
2022/05/19 00:22:05;;;;;;;13.10;9.20;;;;;;;9.42;69.54;100949.72;1589093;88;21071;-69
2022/05/19 00:24:33;;;;;;;16.40;8.93;;;;;;;9.42;69.50;100948.87;1591364;89;21049;-68
2022/05/19 00:27:01;;;;;;;13.93;8.23;;;;;;;9.42;69.69;100955.05;1591643;89;21015;-69
2022/05/19 00:29:27;;;;;;;12.05;7.12;;;;;;;9.38;69.88;100952.86;1605017;89;21705;-69
2022/05/19 00:31:55;;;;;;;13.88;7.80;;;;;;;9.34;69.88;100955.87;1588831;89;21105;-68
2022/05/19 00:34:23;;;;;;;15.50;8.23;;;;;;;9.28;70.12;100960.50;1590256;89;21151;-68
2022/05/19 00:36:58;;;;;;;11.13;8.40;;;;;;;9.21;70.16;100965.31;1648363;86;21577;-68
2022/05/19 00:39:27;;;;;;;15.13;7.50;;;;;;;9.16;70.26;100959.99;1625689;86;21075;-68
2022/05/19 00:44:41;;;;;;;12.20;7.20;;;;;;;9.07;70.63;100960.97;1614445;88;21076;-69
2022/05/19 00:47:23;;;;;;;10.60;7.00;;;;;;;9.06;70.80;100965.12;1605265;89;21151;-69
2022/05/19 00:49:51;;;;;;;9.37;6.60;;;;;;;9.06;71.01;100963.31;1639555;86;21512;-69
2022/05/19 00:52:31;;;;;;;9.40;5.70;;;;;;;9.02;71.08;100959.80;1639055;86;21328;-69
2022/05/19 00:55:11;;;;;;;9.20;6.13;;;;;;;8.95;71.21;100958.30;1656137;86;21104;-68
2022/05/19 00:57:47;;;;;;;10.67;5.70;;;;;;;8.90;71.31;100963.27;1622229;86;21624;-68
2022/05/19 01:00:21;;;;;;;8.67;5.40;;;;;;;8.86;71.49;100959.27;1635115;86;21148;-69
2022/05/19 01:02:54;;;;;;;7.27;5.40;;;;;;;8.83;71.53;100962.23;1617255;86;21138;-67
2022/05/19 01:05:34;;;;;;;7.67;4.70;;;;;;;8.79;71.83;100963.56;1630334;86;21014;-69
2022/05/19 01:08:26;;;;;;;6.60;5.30;;;;;;;8.74;72.01;100964.88;1636865;86;21088;-68
2022/05/19 01:10:54;;;;;;;8.73;5.20;;;;;;;8.70;72.13;100974.17;1630368;86;21183;-68
2022/05/19 01:13:21;;;;;;;6.90;5.20;;;;;;;8.66;72.51;100971.48;1628307;86;21084;-69
2022/05/19 01:15:52;;;;;;;6.87;5.13;;;;;;;8.63;72.60;100967.00;1639354;86;21055;-69
2022/05/19 01:18:21;;;;;;;6.83;5.27;;;;;;;8.61;72.58;100967.63;1638982;86;21147;-69
2022/05/19 01:20:48;;;;;;;5.60;4.80;;;;;;;8.58;72.65;100964.30;1656394;86;21084;-68
2022/05/19 01:23:57;;;;;;;15.23;5.90;;;;;;;8.58;72.68;100965.63;1651622;86;20989;-68
2022/05/19 01:26:53;;;;;;;8.77;5.70;;;;;;;8.62;72.49;100969.31;1664001;85;21074;-69
2022/05/19 01:29:26;;;;;;;9.10;5.37;;;;;;;8.63;72.54;100965.67;1653460;86;20969;-68
2022/05/19 01:32:04;;;;;;;11.17;6.77;;;;;;;8.61;72.42;100976.46;1671026;85;21094;-69
2022/05/19 01:34:34;;;;;;;7.77;5.80;;;;;;;8.60;72.41;100980.09;1647150;83;21532;-68
2022/05/19 01:37:01;;;;;;;8.37;5.77;;;;;;;8.55;72.49;100969.95;1663628;86;21247;-68
2022/05/19 01:39:31;;;;;;;6.57;5.97;;;;;;;8.53;72.58;100968.44;1645569;86;21031;-68
2022/05/19 01:42:31;;;;;;;10.00;5.97;;;;;;;8.50;72.60;100971.43;1658687;86;21052;-68
2022/05/19 01:45:15;;;;;;;8.60;6.20;;;;;;;8.49;72.68;100970.58;1667924;84;21541;-68
2022/05/19 01:48:17;;;;;;;8.83;5.00;;;;;;;8.50;72.68;100975.41;1660502;84;21081;-68
2022/05/19 01:50:52;;;;;;;10.67;6.27;;;;;;;8.49;72.61;100963.11;1660472;85;21030;-69
2022/05/19 01:53:55;;;;;;;11.70;6.50;;;;;;;8.50;72.65;100966.94;1642924;85;21070;-69
2022/05/19 01:56:39;;;;;;;10.97;6.60;;;;;;;8.52;72.71;100972.09;1638757;85;21044;-69
2022/05/19 01:59:40;;;;;;;14.57;7.40;;;;;;;8.51;72.70;100978.39;1647830;86;21020;-69
2022/05/19 02:02:31;;;;;;;10.77;6.20;;;;;;;8.51;72.70;100978.39;1639986;86;21006;-69
2022/05/19 02:05:24;;;;;;;13.23;7.10;;;;;;;8.51;72.60;100985.03;1633856;86;21124;-68
2022/05/19 02:07:56;;;;;;;10.73;7.20;;;;;;;8.51;72.62;100983.70;1666449;86;21141;-68
2022/05/19 02:10:29;;;;;;;9.23;6.67;;;;;;;8.50;72.83;100986.05;1651723;86;21112;-69
2022/05/19 02:13:00;;;;;;;12.00;7.53;;;;;;;8.47;72.81;100987.67;1624800;86;21643;-69
2022/05/19 02:15:32;;;;;;;10.33;7.47;;;;;;;8.46;72.80;100986.03;1641720;86;21048;-68
2022/05/19 02:17:58;;;;;;;11.60;7.03;;;;;;;8.47;72.80;100987.17;1656334;86;21135;-69
2022/05/19 02:20:28;;;;;;;13.55;7.05;;;;;;;8.50;72.84;100988.70;1642161;86;21070;-68
2022/05/19 02:22:54;;;;;;;13.33;7.37;;;;;;;8.51;72.89;100993.00;1670328;85;21027;-69
2022/05/19 02:25:50;;;;;;;16.40;8.13;;;;;;;8.52;72.79;100994.69;1679256;84;21065;-69
2022/05/19 02:28:30;;;;;;;9.77;6.70;;;;;;;8.53;72.76;100998.98;1691998;84;21162;-69
2022/05/19 02:30:58;;;;;;;9.00;6.53;;;;;;;8.55;72.86;100991.69;1690495;84;21019;-69
2022/05/19 02:33:26;;;;;;;11.60;7.00;;;;;;;8.59;72.78;100994.39;1658208;85;21523;-68
2022/05/19 02:35:52;;;;;;;16.73;8.07;;;;;;;8.63;72.76;101001.55;1646975;86;21076;-69
2022/05/19 02:38:21;;;;;;;13.62;8.40;;;;;;;8.66;72.64;101003.37;1646787;86;21048;-68
2022/05/19 02:40:48;;;;;;;11.23;7.83;;;;;;;8.68;72.46;101006.73;1641434;86;21028;-69
2022/05/19 02:43:17;;;;;;;11.20;7.30;;;;;;;8.71;72.43;101007.72;1640347;86;21584;-69
2022/05/19 02:45:44;;;;;;;10.73;7.57;;;;;;;8.74;72.15;101008.73;1665975;84;21046;-69
2022/05/19 02:48:14;;;;;;;9.57;7.03;;;;;;;8.79;72.03;101008.24;1678167;85;21541;-68
2022/05/19 02:50:42;;;;;;;10.57;8.47;;;;;;;8.81;71.63;101006.25;1691958;84;21063;-68
2022/05/19 02:53:10;;;;;;;10.60;7.53;;;;;;;8.87;71.55;101010.09;1679558;84;21064;-70
2022/05/19 02:55:39;;;;;;;14.23;7.97;;;;;;;9.14;71.54;101007.20;1674785;84;21061;-70
2022/05/19 02:58:08;;;;;;;11.20;7.57;;;;;;;9.63;70.44;101013.61;1682256;84;21105;-70
2022/05/19 03:00:35;;;;;;;15.10;7.80;;;;;;;10.24;68.42;101003.39;1674269;84;21547;-70
2022/05/19 03:03:02;;;;;;;12.57;8.83;;;;;;;10.89;65.99;101011.21;1667814;85;21577;-70
2022/05/19 03:05:32;;;;;;;10.05;7.97;;;;;;;11.48;63.84;101005.35;1667594;85;21662;-70
2022/05/19 03:07:59;;;;;;;15.00;7.90;;;;;;;12.07;61.68;101003.89;1667614;85;21090;-70
2022/05/19 03:10:26;;;;;;;11.70;7.70;;;;;;;12.56;58.74;101007.38;1639188;85;21046;-70
2022/05/19 03:12:56;;;;;;;12.35;8.00;;;;;;;12.96;57.09;101012.41;1667489;85;21141;-70
2022/05/19 03:15:24;;;;;;;11.40;7.30;;;;;;;13.29;56.25;101012.80;1667676;85;21138;-70
2022/05/19 03:17:50;;;;;;;12.75;7.78;;;;;;;13.65;55.65;101012.47;1665682;85;21073;-70
2022/05/19 03:20:17;;;;;;;11.22;7.65;;;;;;;14.04;54.01;101009.81;1666702;85;21086;-69
2022/05/19 03:22:44;;;;;;;9.55;7.15;;;;;;;14.44;53.13;101006.87;1667634;85;21093;-71
2022/05/19 03:25:10;;;;;;;12.33;6.53;;;;;;;14.86;51.68;101005.06;1668205;85;21045;-70
2022/05/19 03:27:40;;;;;;;11.40;6.55;;;;;;;15.26;50.11;101002.50;1667826;85;21133;-70
2022/05/19 03:30:14;;;;;;;7.95;6.28;;;;;;;15.45;49.07;101002.75;1666987;85;21577;-71
2022/05/19 03:32:41;;;;;;;9.50;6.25;;;;;;;15.64;47.84;100999.25;1667705;85;21030;-70
2022/05/19 03:35:09;;;;;;;9.73;6.55;;;;;;;15.96;48.27;101007.56;1669344;84;21546;-70
2022/05/19 03:37:35;;;;;;;10.23;5.25;;;;;;;16.35;47.09;101004.52;1684708;84;21066;-70
2022/05/19 03:40:03;;;;;;;12.05;6.42;;;;;;;16.69;45.24;101005.25;1684297;84;21138;-71
2022/05/19 03:42:31;;;;;;;9.25;5.25;;;;;;;16.77;44.65;101010.39;1684161;85;20995;-70
2022/05/19 03:44:58;;;;;;;;;;;;;;;16.81;44.41;101010.80;1686401;84;21528;-71
2022/05/19 03:47:24;;;;;;;9.35;5.30;;;;;;;16.95;44.18;101017.79;1684210;84;20127;-71
2022/05/19 03:49:50;;;;;;;;;;;;;;;17.17;44.20;101018.84;1686853;85;21090;-70
2022/05/19 03:52:16;;;;;;;5.33;4.50;;;;;;;17.35;42.99;101014.06;1684446;85;20191;-70
2022/05/19 03:54:44;;;;;;;5.70;4.22;;;;;;;17.38;43.07;101019.03;1684586;84;21065;-70
2022/05/19 03:57:12;;;;;;;14.87;5.42;;;;;;;17.55;43.49;101021.50;1647900;84;21014;-70
2022/05/19 03:59:38;;;;;;;7.20;4.62;;;;;;;17.74;42.26;101020.23;1639149;87;21102;-71
2022/05/19 04:02:05;;;;;;;5.03;4.28;;;;;;;17.82;42.62;101024.00;1646757;86;21013;-71
2022/05/19 04:04:35;;;;;;;7.83;4.90;;;;;;;18.02;41.75;101023.34;1657487;85;21125;-70
2022/05/19 04:07:01;;;;;;;6.90;4.80;;;;;;;18.19;41.18;101027.66;1657610;85;21118;-70
2022/05/19 04:09:27;;;;;;;;;;;;;;;18.15;42.17;101021.59;1662247;85;21015;-71
2022/05/19 04:11:55;;;;;;;6.60;3.80;;;;;;;18.27;41.10;101026.55;1679114;84;20162;-71
2022/05/19 04:14:21;;;;;;;;;;;;;;;18.37;41.17;101025.52;1688210;84;21106;-71
2022/05/19 04:16:52;;;;;;;5.75;3.52;;;;;;;18.45;41.13;101034.66;1686917;84;20139;-70
2022/05/19 04:19:19;;;;;;;5.33;3.58;;;;;;;18.60;40.35;101030.78;1687070;84;21126;-70
2022/05/19 04:21:46;;;;;;;4.47;3.02;;;;;;;18.54;40.34;101031.70;1671213;84;21116;-71
2022/05/19 04:24:13;;;;;;;6.60;3.47;;;;;;;18.46;40.77;101034.98;1685043;84;21522;-71
2022/05/19 04:26:39;;;;;;;7.03;4.20;;;;;;;18.45;40.51;101033.31;1687227;84;21069;-71
2022/05/19 04:29:05;;;;;;;4.85;3.67;;;;;;;18.36;40.96;101042.75;1704600;84;21562;-71
2022/05/19 04:31:31;;;;;;;5.42;3.80;;;;;;;18.41;41.15;101035.35;1687583;83;21181;-71
2022/05/19 04:33:58;;;;;;;5.03;3.47;;;;;;;18.72;40.51;101037.07;1680723;84;21057;-71
2022/05/19 04:36:25;;;;;;;4.15;3.50;;;;;;;18.86;39.82;101033.74;1671091;84;21010;-72
2022/05/19 04:38:52;;;;;;;11.12;3.67;;;;;;;18.74;40.77;101036.85;1670944;85;21597;-71
2022/05/19 04:41:18;;;;;;;3.95;3.50;;;;;;;18.90;40.70;101041.69;1670760;85;21127;-72
2022/05/19 04:43:44;;;;;;;5.00;3.10;;;;;;;19.09;39.66;101031.67;1670290;84;21079;-71
2022/05/19 04:46:10;;;;;;;;;;;;;;;19.03;40.24;101039.34;1661597;84;21517;-72
2022/05/19 04:48:36;;;;;;;6.65;3.45;;;;;;;18.89;40.32;101037.86;1657732;85;20127;-71
2022/05/19 04:51:05;;;;;;;5.62;3.70;;;;;;;18.70;40.44;101039.70;1653484;85;21105;-71
2022/05/19 04:53:31;;;;;;;8.75;2.90;;;;;;;18.55;41.06;101048.17;1659408;85;21604;-70
2022/05/19 04:55:58;;;;;;;4.85;3.10;;;;;;;18.50;41.40;101046.16;1657543;85;21240;-70
2022/05/19 04:58:24;;;;;;;3.27;2.58;;;;;;;18.43;41.65;101042.70;1657884;85;21559;-71
2022/05/19 05:00:51;;;;;;;;;;;;;;;18.59;40.97;101045.32;1626847;87;21033;-72
2022/05/19 05:03:18;;;;;;;5.95;3.00;;;;;;;18.68;41.52;101042.62;1615765;88;20154;-71
2022/05/19 05:05:47;;;;;;;5.87;2.58;;;;;;;18.76;40.92;101046.40;1659236;85;21568;-71
2022/05/19 05:08:16;;;;;;;8.05;3.25;;;;;;;18.82;40.61;101051.45;1670768;85;21563;-71
2022/05/19 05:10:43;;;;;;;5.15;2.80;;;;;;;18.73;41.12;101051.42;1660955;85;21046;-71
2022/05/19 05:13:14;;;;;;;5.30;3.00;;;;;;;18.63;40.98;101053.30;1657193;86;21609;-71
2022/05/19 05:15:44;;;;;;;3.80;2.83;;;;;;;18.65;41.18;101049.31;1648466;86;21010;-72
2022/05/19 05:18:11;;;;;;;4.10;2.58;;;;;;;18.57;40.70;101049.63;1646896;86;21094;-71
2022/05/19 05:20:41;;;;;;;5.17;2.60;;;;;;;18.29;41.42;101057.67;1647752;87;21131;-71
2022/05/19 05:23:08;;;;;;;9.10;2.92;;;;;;;18.16;41.90;101048.85;1676100;84;21027;-71
2022/05/19 05:25:37;;;;;;;4.85;2.92;;;;;;;18.06;42.52;101050.70;1662594;86;21611;-71
2022/05/19 05:28:05;;;;;;;3.25;2.87;;;;;;;18.13;42.01;101053.36;1708342;84;21500;-72
2022/05/19 05:30:32;;;;;;;3.67;2.42;;;;;;;18.09;42.22;101043.00;1688077;83;21739;-71
2022/05/19 05:33:08;;;;;;;3.30;1.55;;;;;;;18.07;42.42;101049.67;1680171;83;21158;-71
2022/05/19 05:35:35;;;;;;;3.08;2.15;;;;;;;18.15;41.70;101049.38;1686793;84;21135;-71
2022/05/19 05:38:02;;;;;;;2.47;2.08;;;;;;;18.12;42.56;101055.74;1693964;83;21589;-71
2022/05/19 05:40:31;;;;;;;4.05;2.30;;;;;;;18.12;41.82;101056.59;1692494;84;21098;-72
2022/05/19 05:43:08;;;;;;;;;;;;;;;18.14;41.75;101053.65;1710810;83;21153;-71
2022/05/19 05:45:36;;;;;;;3.30;1.92;;;;;;;18.12;41.89;101050.34;1708319;82;20146;-71
2022/05/19 05:48:03;;;;;;;7.00;2.55;;;;;;;18.16;42.07;101058.30;1699022;84;21112;-72
2022/05/19 05:50:30;;;;;;;2.85;2.65;;;;;;;18.31;41.98;101054.76;1698832;83;21061;-71
2022/05/19 05:52:56;;;;;;;3.27;2.10;;;;;;;18.42;41.22;101060.77;1687719;83;21057;-72
2022/05/19 05:55:22;;;;;;;2.45;1.92;;;;;;;18.49;41.37;101061.51;1701657;84;26464;-72
2022/05/19 05:57:49;;;;;;;2.35;1.82;;;;;;;18.44;42.91;101060.02;1690088;83;21547;-72
2022/05/19 06:00:16;;;;;;;;;;;;;;;18.48;41.65;101057.17;1706117;82;21042;-72
2022/05/19 06:02:42;;;;;;;1.87;1.52;;;;;;;18.40;41.92;101062.88;1656885;85;20100;-71
2022/05/19 06:05:10;;;;;;;3.77;2.35;;;;;;;18.31;42.33;101068.25;1656262;86;21025;-72
2022/05/19 06:07:39;;;;;;;2.25;1.67;;;;;;;18.58;41.46;101074.73;1639336;85;21045;-72
2022/05/19 06:10:06;;;;;;;3.67;2.02;;;;;;;18.63;41.03;101070.31;1656997;85;21095;-71
2022/05/19 06:12:32;;;;;;;5.22;2.12;;;;;;;18.51;41.18;101072.62;1661682;85;21017;-72
2022/05/19 06:14:59;;;;;;;2.20;2.00;;;;;;;18.57;41.48;101065.82;1642197;86;21561;-71
2022/05/19 06:17:25;;;;;;;;;;;;;;;18.61;41.14;101074.27;1666410;86;21014;-73
2022/05/19 06:19:51;;;;;;;2.40;1.82;;;;;;;18.69;41.36;101082.09;1665322;86;20419;-73
2022/05/19 06:22:19;;;;;;;2.95;1.90;;;;;;;18.88;41.23;101071.34;1662004;86;21081;-72
2022/05/19 06:24:45;;;;;;;6.00;1.72;;;;;;;19.08;40.09;101069.22;1632545;87;21050;-72
2022/05/19 06:27:11;;;;;;;;;;;;;;;19.11;40.00;101075.50;1633231;86;21038;-70
2022/05/19 06:29:37;;;;;;;2.35;1.57;;;;;;;18.81;40.30;101084.91;1630652;87;20403;-73
2022/05/19 06:32:05;;;;;;;2.77;1.60;;;;;;;18.75;40.02;101083.89;1634651;86;21067;-72
2022/05/19 06:34:32;;;;;;;3.60;2.85;;;;;;;18.82;39.70;101080.63;1630455;87;21056;-72
2022/05/19 06:36:58;;;;;;;4.03;1.82;;;;;;;18.80;39.46;101078.68;1640910;86;21071;-72
2022/05/19 06:39:24;;;;;;;8.63;1.80;;;;;;;18.84;39.40;101074.48;1621441;88;21010;-72
2022/05/19 06:42:02;;;;;;;3.42;1.12;;;;;;;18.83;39.59;101083.62;1633089;87;21020;-72
2022/05/19 06:44:35;;;;;;;2.65;1.40;;;;;;;18.78;40.31;101080.75;1616652;88;21039;-72
2022/05/19 06:47:06;;;;;;;2.60;1.07;;;;;;;18.92;39.76;101082.80;1633582;87;21029;-73
2022/05/19 06:49:32;;;;;;;1.40;1.05;;;;;;;19.19;38.98;101080.63;1635965;87;21113;-72
2022/05/19 06:51:58;;;;;;;;;;;;;;;19.41;38.50;101074.17;1643520;87;21897;-73
2022/05/19 06:54:24;;;;;;;5.65;0.93;;;;;;;19.63;37.71;101066.92;1649553;87;20168;-73
2022/05/19 06:56:51;;;;;;;2.15;0.93;;;;;;;19.79;36.66;101073.02;1657401;85;21067;-73
2022/05/19 06:59:17;;;;;;;1.47;1.05;;;;;;;19.98;36.91;101068.89;1639586;86;21019;-73
2022/05/19 07:01:45;;;;;;;2.85;1.40;;;;;;;19.99;36.00;101070.02;1663220;86;21065;-73
2022/05/19 07:04:14;;;;;;;3.95;1.00;;;;;;;19.93;36.16;101072.31;1671876;85;21131;-73
2022/05/19 07:06:41;;;;;;;1.45;0.78;;;;;;;19.98;35.82;101068.89;1677974;84;21011;-73
2022/05/19 07:09:09;;;;;;;1.98;0.90;;;;;;;20.06;35.75;101071.78;1682900;84;21603;-72
2022/05/19 07:11:35;;;;;;;0.68;0.68;;;;;;;20.10;36.08;101064.84;1681040;84;21137;-72
2022/05/19 07:14:06;;;;;;;4.00;0.95;;;;;;;20.25;35.20;101069.80;1688143;84;21595;-74
2022/05/19 07:16:35;;;;;;;1.62;0.60;;;;;;;20.22;34.76;101061.63;1675075;84;21050;-71
2022/05/19 07:21:49;;;;;;;2.50;0.45;;;;;;;19.88;36.26;101061.35;1667558;86;21810;-73
2022/05/19 07:24:19;;;;;;;3.12;1.40;;;;;;;19.88;35.50;101066.77;1638622;84;21102;-72
2022/05/19 07:26:51;;;;;;;4.42;0.57;;;;;;;19.86;35.68;101064.82;1635092;86;21603;-71
2022/05/19 07:29:18;;;;;;;1.60;0.50;;;;;;;19.60;36.56;101066.83;1641064;86;20991;-72
2022/05/19 07:31:47;;;;;;;3.62;0.90;;;;;;;19.43;35.81;101072.59;1637002;86;21096;-72
2022/05/19 07:34:17;;;;;;;2.37;0.50;;;;;;;19.18;36.71;101068.68;1660031;84;21073;-71
2022/05/19 07:36:43;;;;;;;1.85;0.30;;;;;;;19.06;36.44;101060.49;1685495;84;21517;-72
2022/05/19 07:39:11;;;;;;;0.85;0.40;;;;;;;18.98;36.61;101058.11;1674174;84;21557;-71
2022/05/19 07:41:39;;;;;;;1.62;0.47;;;;;;;18.91;37.50;101061.41;1685507;84;21038;-71
2022/05/19 07:44:07;;;;;;;0.70;0.15;;;;;;;18.79;37.02;101055.38;1706221;84;21006;-72
2022/05/19 07:46:35;;;;;;;0.82;0.28;;;;;;;18.66;35.49;101052.83;1690961;84;21109;-71
2022/05/19 07:49:02;;;;;;;4.20;0.33;;;;;;;18.57;35.67;101055.52;1674594;84;21577;-72
2022/05/19 07:51:36;;;;;;;1.00;0.10;;;;;;;18.55;36.17;101048.99;1667490;85;21081;-72
2022/05/19 07:53:59;;;;;;;0.40;0.20;;;;;;;18.57;35.81;101049.63;1650655;85;21553;-70
2022/05/19 07:56:26;;;;;;;2.40;0.10;;;;;;;18.53;35.40;101041.64;1657536;85;21514;-71
2022/05/19 07:58:53;;;;;;;0.45;0.10;;;;;;;18.57;35.64;101046.08;1708265;83;21109;-71
2022/05/19 08:01:20;;;;;;;1.47;0.20;;;;;;;18.57;34.71;101049.63;1689110;82;21083;-72
2022/05/19 08:03:46;;;;;;;3.80;0.10;;;;;;;18.51;35.12;101042.93;1657127;85;21068;-71
2022/05/19 08:06:13;;;;;;;0.30;0.10;;;;;;;18.51;34.90;101037.00;1657359;85;21061;-72
2022/05/19 08:08:40;;;;;;;0.20;0.13;;;;;;;18.50;34.26;101046.16;1652119;85;21016;-71
2022/05/19 08:11:07;;;;;;;0.90;0.10;;;;;;;18.44;34.87;101039.78;1650670;85;21121;-71
2022/05/19 08:16:21;;;;;;;0.65;0.20;;;;;;;18.28;34.77;101044.40;1689687;83;21167;-70
2022/05/19 08:18:47;;;;;;;1.65;0.10;;;;;;;18.24;35.33;101033.75;1698718;83;21064;-72
2022/05/19 08:21:14;;;;;;;0.95;0.20;;;;;;;18.21;35.94;101029.61;1689287;83;21188;-71
2022/05/19 08:23:45;;;;;;;2.22;0.50;;;;;;;18.21;36.03;101037.70;1643784;84;21894;-70
2022/05/19 08:26:13;;;;;;;1.77;0.20;;;;;;;18.22;36.26;101029.92;1620302;86;21087;-71
2022/05/19 08:28:43;;;;;;;4.12;0.82;;;;;;;18.22;36.78;101033.97;1625935;86;21080;-71
2022/05/19 08:31:20;;;;;;;0.82;0.20;;;;;;;18.25;37.03;101019.20;1620411;86;21120;-71
2022/05/19 08:33:52;;;;;;;4.95;0.40;;;;;;;18.25;37.05;101014.64;1619256;86;21578;-72
2022/05/19 08:36:18;;;;;;;1.10;0.20;;;;;;;18.30;37.29;101016.66;1634375;85;22140;-71
2022/05/19 08:38:47;;;;;;;2.47;0.28;;;;;;;18.37;37.18;101014.73;1642392;86;21071;-72
2022/05/19 08:41:25;;;;;;;0.33;0.23;;;;;;;18.40;37.14;101004.00;1654284;85;21488;-71
2022/05/19 08:44:20;;;;;;;2.60;0.80;;;;;;;18.43;36.82;101003.03;1657082;85;21082;-72
2022/05/19 08:46:50;;;;;;;2.33;0.25;;;;;;;18.47;36.93;101006.11;1630593;85;21035;-71
2022/05/19 08:49:36;;;;;;;0.82;0.30;;;;;;;18.45;36.44;101006.33;1630657;85;21507;-71
2022/05/19 08:52:15;;;;;;;0.68;0.20;;;;;;;18.41;36.71;101007.02;1633274;85;21159;-71
2022/05/19 08:54:46;;;;;;;2.33;0.70;;;;;;;18.45;36.29;101002.28;1630979;85;21070;-70
2022/05/19 08:57:36;;;;;;;0.88;0.20;;;;;;;18.43;36.44;101001.68;1631936;86;21011;-71
2022/05/19 09:00:28;;;;;;;0.72;0.33;;;;;;;18.48;36.63;101003.72;1630676;86;21058;-71
2022/05/19 09:03:16;;;;;;;0.45;0.10;;;;;;;18.51;35.82;101008.65;1652060;85;21015;-70
2022/05/19 09:06:16;;;;;;;0.65;0.20;;;;;;;18.45;35.75;101004.98;1656962;85;21091;-72
2022/05/19 09:08:53;;;;;;;3.70;0.20;;;;;;;18.39;34.96;101001.02;1644320;85;21118;-72
2022/05/19 09:11:24;;;;;;;1.98;0.30;;;;;;;18.31;35.53;100999.94;1660144;85;21007;-71
2022/05/19 09:14:03;;;;;;;4.47;0.30;;;;;;;18.33;35.80;101001.88;1684135;84;21107;-72
2022/05/19 09:16:35;;;;;;;0.85;0.30;;;;;;;18.37;35.69;100999.06;1668789;84;21094;-70
2022/05/19 09:19:18;;;;;;;1.72;0.40;;;;;;;18.45;35.51;101000.92;1683235;84;21075;-72
2022/05/19 09:21:48;;;;;;;5.03;0.70;;;;;;;18.53;35.24;100990.35;1683881;84;21109;-72
2022/05/19 09:24:14;;;;;;;2.37;0.50;;;;;;;18.60;35.65;100987.59;1653115;85;21526;-73
2022/05/19 09:26:55;;;;;;;1.40;0.75;;;;;;;18.68;35.50;100984.58;1678315;84;21047;-71
2022/05/19 09:29:39;;;;;;;3.02;0.50;;;;;;;18.74;35.18;100985.55;1693344;84;21023;-72
2022/05/19 09:32:34;;;;;;;3.10;0.80;;;;;;;18.69;35.10;100991.64;1666378;85;21090;-71
2022/05/19 09:35:20;;;;;;;2.42;0.65;;;;;;;18.65;35.21;100991.80;1638956;86;21099;-72
2022/05/19 09:37:51;;;;;;;4.75;1.30;;;;;;;18.61;35.42;100984.67;1608487;88;21050;-72
2022/05/19 09:40:23;;;;;;;1.75;0.88;;;;;;;18.65;35.19;100985.86;1649998;86;21121;-71
2022/05/19 09:43:20;;;;;;;1.90;1.12;;;;;;;18.70;34.92;100981.12;1655183;86;21040;-71
2022/05/19 09:45:56;;;;;;;1.95;1.30;;;;;;;18.72;35.02;100975.50;1626304;85;21059;-72
2022/05/19 09:48:29;;;;;;;3.83;1.02;;;;;;;18.80;35.27;100968.45;1620978;87;21027;-72
2022/05/19 09:51:03;;;;;;;2.80;1.45;;;;;;;18.92;35.52;100963.13;1635185;87;21090;-71
2022/05/19 09:53:41;;;;;;;2.35;1.10;;;;;;;19.03;35.58;100966.41;1645315;86;21068;-72
2022/05/19 09:56:12;;;;;;;7.65;1.05;;;;;;;19.14;35.03;100960.22;1648920;85;20987;-71
2022/05/19 09:58:46;;;;;;;1.15;1.00;;;;;;;19.22;34.46;100960.42;1658077;85;21132;-72
2022/05/19 10:01:30;;;;;;;1.65;0.62;;;;;;;19.24;33.83;100952.37;1648631;85;21024;-71
2022/05/19 10:04:02;;;;;;;2.02;0.68;;;;;;;19.22;33.72;100950.95;1619127;87;21155;-72
2022/05/19 10:06:55;;;;;;;2.95;0.88;;;;;;;19.21;34.19;100949.30;1639706;86;21398;-72
2022/05/19 10:09:32;;;;;;;7.72;1.10;;;;;;;19.28;34.43;100950.03;1641057;86;21023;-71
2022/05/19 10:12:09;;;;;;;4.60;1.50;;;;;;;19.30;33.61;100952.50;1637632;86;21138;-72
2022/05/19 10:14:37;;;;;;;2.75;0.85;;;;;;;19.28;33.28;100943.80;1635769;86;21136;-70
2022/05/19 10:17:29;;;;;;;2.22;0.50;;;;;;;19.32;32.74;100940.94;1640007;86;21590;-71
2022/05/19 10:20:13;;;;;;;4.05;0.55;;;;;;;19.34;32.46;100929.36;1624547;87;21590;-73
2022/05/19 10:23:02;;;;;;;5.28;0.70;;;;;;;19.36;32.70;100934.00;1628756;86;21076;-71
2022/05/19 10:25:50;;;;;;;3.62;0.60;;;;;;;19.41;32.26;100927.38;1635228;86;21083;-72
2022/05/19 10:32:50;;;;;;;3.92;0.65;;;;;;;19.49;32.12;100927.03;1767910;80;20986;-73
2022/05/19 10:35:47;;;;;;;2.17;0.50;;;;;;;19.60;31.91;100919.45;1711820;80;21193;-71
2022/05/19 10:38:49;;;;;;;;;;;;;;;19.74;32.13;100912.49;1700515;83;21023;-70
2022/05/19 10:41:42;;;;;;;3.90;0.80;;;;;;;19.88;31.66;100912.56;1667950;85;20108;-72
2022/05/19 10:44:32;;;;;;;9.00;0.60;;;;;;;19.92;31.70;100915.63;1639637;86;21542;-71
2022/05/19 10:47:10;;;;;;;1.95;1.00;;;;;;;20.00;31.66;100911.19;1620133;87;21098;-71
2022/05/19 10:49:58;;;;;;;2.42;0.72;;;;;;;20.06;31.53;100910.77;1619046;87;21553;-73
2022/05/19 10:52:56;;;;;;;2.70;0.60;;;;;;;20.05;31.85;100907.25;1627119;87;21029;-72
2022/05/19 10:55:55;;;;;;;2.22;0.70;;;;;;;20.04;31.94;100906.95;1621453;86;21013;-71
2022/05/19 10:58:49;;;;;;;3.85;0.88;;;;;;;19.99;31.95;100911.73;1622412;86;21073;-70
2022/05/19 11:01:33;;;;;;;5.70;1.12;;;;;;;19.95;32.18;100902.45;1638986;85;21046;-70
2022/05/19 11:04:33;;;;;;;3.35;1.92;;;;;;;19.90;32.25;100902.33;1627674;86;21879;-71
2022/05/19 11:07:26;;;;;;;5.50;2.85;;;;;;;19.86;31.85;100880.87;1636979;86;21227;-72
2022/05/19 11:10:19;;;;;;;5.03;2.27;;;;;;;19.84;31.74;100893.27;1630607;86;21106;-71
2022/05/19 11:13:22;;;;;;;4.85;2.35;;;;;;;19.82;31.31;100888.63;1652940;84;22247;-72
2022/05/19 11:16:00;;;;;;;5.60;2.98;;;;;;;19.80;31.67;100896.16;1664406;84;21610;-71
2022/05/19 11:18:40;;;;;;;3.17;2.02;;;;;;;19.82;32.05;100890.52;1664671;83;20981;-72
2022/05/19 11:21:37;;;;;;;3.72;2.08;;;;;;;19.91;31.80;100886.40;1676955;83;21034;-71
2022/05/19 11:24:12;;;;;;;3.35;2.10;;;;;;;20.00;31.57;100884.98;1637952;83;21040;-70
2022/05/19 11:27:11;;;;;;;4.40;2.27;;;;;;;20.12;31.65;100878.72;1660948;84;21104;-73
2022/05/19 11:29:47;;;;;;;3.75;1.95;;;;;;;20.19;31.52;100880.23;1641366;84;21102;-70
2022/05/19 11:32:31;;;;;;;5.42;2.00;;;;;;;20.22;31.46;100871.61;1666793;84;21096;-71
2022/05/19 11:35:04;;;;;;;7.10;1.70;;;;;;;20.26;30.89;100862.48;1650885;82;21049;-72
2022/05/19 11:37:57;;;;;;;2.45;1.98;;;;;;;20.33;30.08;100875.36;1643892;86;21021;-71
2022/05/19 11:40:46;;;;;;;4.78;0.98;;;;;;;20.39;29.78;100864.10;1640837;86;21537;-72
2022/05/19 11:43:26;;;;;;;1.95;0.90;;;;;;;20.40;29.77;100862.52;1637670;86;21088;-72
2022/05/19 11:46:32;;;;;;;2.90;1.20;;;;;;;20.44;29.59;100856.09;1647624;86;21528;-71
2022/05/19 11:55:39;;;;;;;2.55;1.40;;;;;;;20.62;29.29;100849.67;1649897;86;21068;-71
2022/05/19 11:58:20;;;;;;;3.45;1.30;;;;;;;20.66;28.87;100842.70;1650951;85;21114;-71
2022/05/19 12:01:07;;;;;;;2.40;1.45;;;;;;;20.74;28.60;100834.73;1658185;84;21593;-71
2022/05/19 12:04:13;;;;;;;3.02;0.75;;;;;;;20.80;28.74;100823.73;1638737;86;21081;-70
2022/05/19 12:06:50;;;;;;;2.47;0.53;;;;;;;20.88;28.14;100838.76;1635835;86;21052;-72
2022/05/19 12:09:41;;;;;;;0.75;0.30;;;;;;;20.90;28.04;100828.50;1659775;84;21537;-71
2022/05/19 12:12:34;;;;;;;2.83;0.25;;;;;;;20.92;28.46;100834.48;1612635;87;21029;-71
2022/05/19 12:15:26;;;;;;;0.90;0.20;;;;;;;20.98;28.10;100838.11;1627462;86;21565;-72
2022/05/19 12:18:13;;;;;;;1.70;0.23;;;;;;;21.03;27.64;100823.84;1631262;87;21025;-72